Walcott, Canada
Current Conditions -  °F | °C
As of 4:00 AM on Sunday 25 Jan 2015 (Local Time) from CYYD Reporting Station
Clear Clear  
Wind Chill: 39°   Ceiling: Unl
Heat Index: 43°   Visibility: 9mi
Dew Point: 34°   Wind: 7mph
Humidity: 70%   Direction: NA
Pressure: 29.76"   Gusts: NA
Location:  54.52°N, 126.85°W
Report Text: CYYD 251200Z AUTO VRB06KT 9SM CLR 06/01 A2976 RMK SLP092
Loading
Personal Weather Stations






























Interactive Weather Map New forecast layout! Learn more

10-Day Weather Forecast

Advertisements
Track Severe Weather on mobile